sensor_id;sensor_type;location;lat;lon;timestamp;P1;durP1;ratioP1;P2;durP2;ratioP2
64653;SDS011;51065;48.884;12.598;2022-11-14T00:02:10;13.80;;;4.05;;
64653;SDS011;51065;48.884;12.598;2022-11-14T00:04:36;12.07;;;4.75;;
64653;SDS011;51065;48.884;12.598;2022-11-14T00:07:02;9.35;;;3.90;;
64653;SDS011;51065;48.884;12.598;2022-11-14T00:09:27;8.82;;;3.70;;
64653;SDS011;51065;48.884;12.598;2022-11-14T00:11:54;10.77;;;4.32;;
64653;SDS011;51065;48.884;12.598;2022-11-14T00:14:20;10.57;;;3.85;;
64653;SDS011;51065;48.884;12.598;2022-11-14T00:16:46;10.15;;;4.30;;
64653;SDS011;51065;48.884;12.598;2022-11-14T00:19:12;11.27;;;4.38;;
64653;SDS011;51065;48.884;12.598;2022-11-14T00:21:37;9.63;;;3.97;;
64653;SDS011;51065;48.884;12.598;2022-11-14T00:24:03;11.20;;;4.35;;
64653;SDS011;51065;48.884;12.598;2022-11-14T00:26:29;11.70;;;3.90;;
64653;SDS011;51065;48.884;12.598;2022-11-14T00:28:55;10.52;;;4.38;;
64653;SDS011;51065;48.884;12.598;2022-11-14T00:31:20;11.82;;;4.40;;
64653;SDS011;51065;48.884;12.598;2022-11-14T00:33:46;9.00;;;3.95;;
64653;SDS011;51065;48.884;12.598;2022-11-14T00:36:12;9.60;;;3.80;;
64653;SDS011;51065;48.884;12.598;2022-11-14T00:38:38;11.45;;;4.22;;
64653;SDS011;51065;48.884;12.598;2022-11-14T00:41:03;12.27;;;4.70;;
64653;SDS011;51065;48.884;12.598;2022-11-14T00:43:29;9.13;;;3.90;;
64653;SDS011;51065;48.884;12.598;2022-11-14T00:45:55;10.32;;;3.70;;
64653;SDS011;51065;48.884;12.598;2022-11-14T00:48:20;8.38;;;3.72;;
64653;SDS011;51065;48.884;12.598;2022-11-14T00:50:46;9.35;;;4.05;;
64653;SDS011;51065;48.884;12.598;2022-11-14T00:53:11;10.38;;;4.15;;
64653;SDS011;51065;48.884;12.598;2022-11-14T00:55:37;10.63;;;4.30;;
64653;SDS011;51065;48.884;12.598;2022-11-14T00:58:03;12.32;;;4.22;;
64653;SDS011;51065;48.884;12.598;2022-11-14T01:00:29;11.65;;;4.28;;
64653;SDS011;51065;48.884;12.598;2022-11-14T01:02:55;8.82;;;3.67;;
64653;SDS011;51065;48.884;12.598;2022-11-14T01:05:23;8.52;;;3.88;;
64653;SDS011;51065;48.884;12.598;2022-11-14T01:07:49;10.70;;;4.15;;
64653;SDS011;51065;48.884;12.598;2022-11-14T01:10:15;9.15;;;3.85;;
64653;SDS011;51065;48.884;12.598;2022-11-14T01:12:41;8.75;;;3.90;;
64653;SDS011;51065;48.884;12.598;2022-11-14T01:15:07;10.50;;;4.03;;
64653;SDS011;51065;48.884;12.598;2022-11-14T01:17:33;12.32;;;4.00;;
64653;SDS011;51065;48.884;12.598;2022-11-14T01:19:59;16.85;;;5.63;;
64653;SDS011;51065;48.884;12.598;2022-11-14T01:22:24;16.05;;;5.20;;
64653;SDS011;51065;48.884;12.598;2022-11-14T01:24:50;15.23;;;5.55;;
64653;SDS011;51065;48.884;12.598;2022-11-14T01:27:16;13.27;;;4.68;;
64653;SDS011;51065;48.884;12.598;2022-11-14T01:29:41;13.50;;;4.70;;
64653;SDS011;51065;48.884;12.598;2022-11-14T01:32:07;11.25;;;4.60;;
64653;SDS011;51065;48.884;12.598;2022-11-14T01:34:32;11.50;;;4.38;;
64653;SDS011;51065;48.884;12.598;2022-11-14T01:36:58;11.93;;;4.15;;
64653;SDS011;51065;48.884;12.598;2022-11-14T01:39:25;13.00;;;4.70;;
64653;SDS011;51065;48.884;12.598;2022-11-14T01:41:51;12.75;;;4.93;;
64653;SDS011;51065;48.884;12.598;2022-11-14T01:44:36;12.93;;;5.10;;
64653;SDS011;51065;48.884;12.598;2022-11-14T01:47:07;13.48;;;4.75;;
64653;SDS011;51065;48.884;12.598;2022-11-14T01:49:37;12.60;;;4.63;;
64653;SDS011;51065;48.884;12.598;2022-11-14T01:52:06;10.50;;;4.22;;
64653;SDS011;51065;48.884;12.598;2022-11-14T01:54:33;13.32;;;4.47;;
64653;SDS011;51065;48.884;12.598;2022-11-14T01:57:02;13.07;;;4.47;;
64653;SDS011;51065;48.884;12.598;2022-11-14T01:59:37;11.50;;;4.57;;
64653;SDS011;51065;48.884;12.598;2022-11-14T02:02:11;12.07;;;4.68;;
64653;SDS011;51065;48.884;12.598;2022-11-14T02:04:41;12.32;;;4.72;;
64653;SDS011;51065;48.884;12.598;2022-11-14T02:07:09;12.45;;;4.45;;
64653;SDS011;51065;48.884;12.598;2022-11-14T02:09:37;13.68;;;4.85;;
64653;SDS011;51065;48.884;12.598;2022-11-14T02:12:06;12.10;;;4.25;;
64653;SDS011;51065;48.884;12.598;2022-11-14T02:14:33;12.18;;;4.50;;
64653;SDS011;51065;48.884;12.598;2022-11-14T02:17:01;11.75;;;4.85;;
64653;SDS011;51065;48.884;12.598;2022-11-14T02:22:17;10.52;;;4.50;;
64653;SDS011;51065;48.884;12.598;2022-11-14T02:24:43;13.02;;;4.85;;
64653;SDS011;51065;48.884;12.598;2022-11-14T02:27:09;12.68;;;4.43;;
64653;SDS011;51065;48.884;12.598;2022-11-14T02:29:36;11.57;;;4.22;;
64653;SDS011;51065;48.884;12.598;2022-11-14T02:32:02;12.38;;;4.40;;
64653;SDS011;51065;48.884;12.598;2022-11-14T02:34:28;14.93;;;5.22;;
64653;SDS011;51065;48.884;12.598;2022-11-14T02:36:54;11.25;;;4.72;;
64653;SDS011;51065;48.884;12.598;2022-11-14T02:39:21;10.68;;;4.25;;
64653;SDS011;51065;48.884;12.598;2022-11-14T02:41:46;12.55;;;4.68;;
64653;SDS011;51065;48.884;12.598;2022-11-14T02:44:13;11.27;;;4.57;;
64653;SDS011;51065;48.884;12.598;2022-11-14T02:46:39;11.43;;;4.22;;
64653;SDS011;51065;48.884;12.598;2022-11-14T02:49:05;12.68;;;5.53;;
64653;SDS011;51065;48.884;12.598;2022-11-14T02:51:30;15.77;;;5.07;;
64653;SDS011;51065;48.884;12.598;2022-11-14T02:53:56;10.40;;;4.30;;
64653;SDS011;51065;48.884;12.598;2022-11-14T02:56:22;13.43;;;5.13;;
64653;SDS011;51065;48.884;12.598;2022-11-14T02:58:47;13.48;;;4.78;;
64653;SDS011;51065;48.884;12.598;2022-11-14T03:01:13;11.52;;;4.13;;
64653;SDS011;51065;48.884;12.598;2022-11-14T03:03:38;9.35;;;4.22;;
64653;SDS011;51065;48.884;12.598;2022-11-14T03:06:04;10.35;;;4.60;;
64653;SDS011;51065;48.884;12.598;2022-11-14T03:08:30;12.07;;;4.18;;
64653;SDS011;51065;48.884;12.598;2022-11-14T03:11:02;10.05;;;4.15;;
64653;SDS011;51065;48.884;12.598;2022-11-14T03:13:36;11.63;;;4.18;;
64653;SDS011;51065;48.884;12.598;2022-11-14T03:16:06;13.88;;;5.20;;
64653;SDS011;51065;48.884;12.598;2022-11-14T03:18:33;13.38;;;5.38;;
64653;SDS011;51065;48.884;12.598;2022-11-14T03:21:06;11.48;;;4.47;;
64653;SDS011;51065;48.884;12.598;2022-11-14T03:23:36;10.63;;;4.22;;
64653;SDS011;51065;48.884;12.598;2022-11-14T03:26:02;11.93;;;4.78;;
64653;SDS011;51065;48.884;12.598;2022-11-14T03:28:29;13.05;;;5.10;;
64653;SDS011;51065;48.884;12.598;2022-11-14T03:30:55;12.48;;;4.80;;
64653;SDS011;51065;48.884;12.598;2022-11-14T03:33:21;12.68;;;5.18;;
64653;SDS011;51065;48.884;12.598;2022-11-14T03:35:50;12.07;;;4.82;;
64653;SDS011;51065;48.884;12.598;2022-11-14T03:38:16;12.30;;;4.45;;
64653;SDS011;51065;48.884;12.598;2022-11-14T03:40:43;12.80;;;5.38;;
64653;SDS011;51065;48.884;12.598;2022-11-14T03:43:08;12.93;;;4.70;;
64653;SDS011;51065;48.884;12.598;2022-11-14T03:45:37;11.88;;;4.63;;
64653;SDS011;51065;48.884;12.598;2022-11-14T03:48:04;11.13;;;4.15;;
64653;SDS011;51065;48.884;12.598;2022-11-14T03:50:30;10.93;;;4.53;;
64653;SDS011;51065;48.884;12.598;2022-11-14T03:52:56;12.55;;;4.65;;
64653;SDS011;51065;48.884;12.598;2022-11-14T03:55:21;12.55;;;4.53;;
64653;SDS011;51065;48.884;12.598;2022-11-14T03:57:47;11.82;;;4.78;;
64653;SDS011;51065;48.884;12.598;2022-11-14T04:00:12;13.25;;;4.57;;
64653;SDS011;51065;48.884;12.598;2022-11-14T04:02:39;12.48;;;4.60;;
64653;SDS011;51065;48.884;12.598;2022-11-14T04:05:05;13.63;;;5.00;;
64653;SDS011;51065;48.884;12.598;2022-11-14T04:07:31;15.05;;;5.05;;
64653;SDS011;51065;48.884;12.598;2022-11-14T04:09:56;12.75;;;5.15;;
64653;SDS011;51065;48.884;12.598;2022-11-14T04:12:22;13.93;;;5.68;;
64653;SDS011;51065;48.884;12.598;2022-11-14T04:14:47;13.65;;;5.28;;
64653;SDS011;51065;48.884;12.598;2022-11-14T04:17:13;14.85;;;5.47;;
64653;SDS011;51065;48.884;12.598;2022-11-14T04:19:39;12.27;;;4.90;;
64653;SDS011;51065;48.884;12.598;2022-11-14T04:22:04;13.35;;;5.63;;
64653;SDS011;51065;48.884;12.598;2022-11-14T04:24:30;15.90;;;5.90;;
64653;SDS011;51065;48.884;12.598;2022-11-14T04:26:56;17.45;;;5.78;;
64653;SDS011;51065;48.884;12.598;2022-11-14T04:29:22;16.15;;;5.65;;
64653;SDS011;51065;48.884;12.598;2022-11-14T04:31:47;13.13;;;5.63;;
64653;SDS011;51065;48.884;12.598;2022-11-14T04:34:13;12.38;;;4.88;;
64653;SDS011;51065;48.884;12.598;2022-11-14T04:36:38;13.13;;;5.15;;
64653;SDS011;51065;48.884;12.598;2022-11-14T04:39:04;15.65;;;5.75;;
64653;SDS011;51065;48.884;12.598;2022-11-14T04:41:30;12.13;;;4.97;;
64653;SDS011;51065;48.884;12.598;2022-11-14T04:43:55;16.20;;;5.55;;
64653;SDS011;51065;48.884;12.598;2022-11-14T04:46:21;11.98;;;5.10;;
64653;SDS011;51065;48.884;12.598;2022-11-14T04:48:46;13.63;;;5.25;;
64653;SDS011;51065;48.884;12.598;2022-11-14T04:51:12;12.32;;;4.88;;
64653;SDS011;51065;48.884;12.598;2022-11-14T04:53:38;16.38;;;5.40;;
64653;SDS011;51065;48.884;12.598;2022-11-14T04:56:04;15.82;;;5.32;;
64653;SDS011;51065;48.884;12.598;2022-11-14T04:58:30;11.80;;;4.50;;
64653;SDS011;51065;48.884;12.598;2022-11-14T05:00:55;14.95;;;5.00;;
64653;SDS011;51065;48.884;12.598;2022-11-14T05:03:24;13.45;;;5.43;;
64653;SDS011;51065;48.884;12.598;2022-11-14T05:05:49;12.77;;;4.88;;
64653;SDS011;51065;48.884;12.598;2022-11-14T05:08:15;15.02;;;5.93;;
64653;SDS011;51065;48.884;12.598;2022-11-14T05:10:42;13.07;;;5.25;;
64653;SDS011;51065;48.884;12.598;2022-11-14T05:13:08;11.82;;;4.72;;
64653;SDS011;51065;48.884;12.598;2022-11-14T05:15:35;14.07;;;4.78;;
64653;SDS011;51065;48.884;12.598;2022-11-14T05:18:01;11.50;;;4.60;;
64653;SDS011;51065;48.884;12.598;2022-11-14T05:20:26;14.15;;;5.35;;
64653;SDS011;51065;48.884;12.598;2022-11-14T05:22:53;14.32;;;5.47;;
64653;SDS011;51065;48.884;12.598;2022-11-14T05:25:19;14.20;;;5.00;;
64653;SDS011;51065;48.884;12.598;2022-11-14T05:27:46;14.13;;;5.35;;
64653;SDS011;51065;48.884;12.598;2022-11-14T05:30:12;14.18;;;5.63;;
64653;SDS011;51065;48.884;12.598;2022-11-14T05:32:37;14.43;;;5.80;;
64653;SDS011;51065;48.884;12.598;2022-11-14T05:35:03;14.88;;;5.95;;
64653;SDS011;51065;48.884;12.598;2022-11-14T05:37:29;14.75;;;5.40;;
64653;SDS011;51065;48.884;12.598;2022-11-14T05:39:55;13.85;;;5.25;;
64653;SDS011;51065;48.884;12.598;2022-11-14T05:42:20;13.27;;;5.38;;
64653;SDS011;51065;48.884;12.598;2022-11-14T05:44:46;14.45;;;5.22;;
64653;SDS011;51065;48.884;12.598;2022-11-14T05:47:12;14.63;;;5.30;;
64653;SDS011;51065;48.884;12.598;2022-11-14T05:49:37;16.20;;;5.40;;
64653;SDS011;51065;48.884;12.598;2022-11-14T05:52:03;14.63;;;5.75;;
64653;SDS011;51065;48.884;12.598;2022-11-14T05:54:28;15.70;;;6.20;;
64653;SDS011;51065;48.884;12.598;2022-11-14T05:56:54;15.90;;;5.68;;
64653;SDS011;51065;48.884;12.598;2022-11-14T05:59:19;15.32;;;5.63;;
64653;SDS011;51065;48.884;12.598;2022-11-14T06:01:45;15.32;;;5.78;;
64653;SDS011;51065;48.884;12.598;2022-11-14T06:04:12;12.93;;;5.50;;
64653;SDS011;51065;48.884;12.598;2022-11-14T06:06:39;13.07;;;5.25;;
64653;SDS011;51065;48.884;12.598;2022-11-14T06:09:04;14.18;;;5.28;;
64653;SDS011;51065;48.884;12.598;2022-11-14T06:11:30;17.92;;;7.10;;
64653;SDS011;51065;48.884;12.598;2022-11-14T06:13:55;17.25;;;7.20;;
64653;SDS011;51065;48.884;12.598;2022-11-14T06:16:21;19.10;;;7.78;;
64653;SDS011;51065;48.884;12.598;2022-11-14T06:18:47;16.88;;;7.15;;
64653;SDS011;51065;48.884;12.598;2022-11-14T06:21:13;16.52;;;6.47;;
64653;SDS011;51065;48.884;12.598;2022-11-14T06:23:40;14.32;;;5.95;;
64653;SDS011;51065;48.884;12.598;2022-11-14T06:26:09;15.98;;;6.15;;
64653;SDS011;51065;48.884;12.598;2022-11-14T06:28:48;14.95;;;5.60;;
64653;SDS011;51065;48.884;12.598;2022-11-14T06:31:14;15.07;;;6.03;;
64653;SDS011;51065;48.884;12.598;2022-11-14T06:33:40;14.88;;;5.82;;
64653;SDS011;51065;48.884;12.598;2022-11-14T06:36:06;15.75;;;6.25;;
64653;SDS011;51065;48.884;12.598;2022-11-14T06:38:33;16.58;;;6.85;;
64653;SDS011;51065;48.884;12.598;2022-11-14T06:41:01;16.63;;;6.30;;
64653;SDS011;51065;48.884;12.598;2022-11-14T06:43:37;16.60;;;5.47;;
64653;SDS011;51065;48.884;12.598;2022-11-14T06:46:05;16.42;;;5.75;;
64653;SDS011;51065;48.884;12.598;2022-11-14T06:48:32;16.42;;;6.20;;
64653;SDS011;51065;48.884;12.598;2022-11-14T06:50:58;16.42;;;6.53;;
64653;SDS011;51065;48.884;12.598;2022-11-14T06:53:24;15.60;;;5.88;;
64653;SDS011;51065;48.884;12.598;2022-11-14T06:58:24;14.68;;;5.38;;
64653;SDS011;51065;48.884;12.598;2022-11-14T07:00:51;16.30;;;5.95;;
64653;SDS011;51065;48.884;12.598;2022-11-14T07:03:16;14.48;;;5.63;;
64653;SDS011;51065;48.884;12.598;2022-11-14T07:05:42;14.30;;;5.47;;
64653;SDS011;51065;48.884;12.598;2022-11-14T07:08:07;13.65;;;5.45;;
64653;SDS011;51065;48.884;12.598;2022-11-14T07:10:33;14.43;;;5.68;;
64653;SDS011;51065;48.884;12.598;2022-11-14T07:12:58;11.85;;;5.00;;
64653;SDS011;51065;48.884;12.598;2022-11-14T07:15:24;11.55;;;4.55;;
64653;SDS011;51065;48.884;12.598;2022-11-14T07:17:50;15.48;;;5.80;;
64653;SDS011;51065;48.884;12.598;2022-11-14T07:20:15;13.75;;;5.03;;
64653;SDS011;51065;48.884;12.598;2022-11-14T07:22:44;14.48;;;4.75;;
64653;SDS011;51065;48.884;12.598;2022-11-14T07:25:10;14.55;;;4.95;;
64653;SDS011;51065;48.884;12.598;2022-11-14T07:27:36;11.98;;;4.95;;
64653;SDS011;51065;48.884;12.598;2022-11-14T07:30:02;11.90;;;5.22;;
64653;SDS011;51065;48.884;12.598;2022-11-14T07:32:28;12.63;;;4.75;;
64653;SDS011;51065;48.884;12.598;2022-11-14T07:34:54;11.73;;;4.45;;
64653;SDS011;51065;48.884;12.598;2022-11-14T07:37:19;14.18;;;5.15;;
64653;SDS011;51065;48.884;12.598;2022-11-14T07:39:45;11.40;;;4.57;;
64653;SDS011;51065;48.884;12.598;2022-11-14T07:42:10;11.70;;;5.10;;
64653;SDS011;51065;48.884;12.598;2022-11-14T07:44:36;12.75;;;4.85;;
64653;SDS011;51065;48.884;12.598;2022-11-14T07:47:01;12.30;;;4.82;;
64653;SDS011;51065;48.884;12.598;2022-11-14T07:49:27;11.00;;;5.00;;
64653;SDS011;51065;48.884;12.598;2022-11-14T07:51:53;11.77;;;5.03;;
64653;SDS011;51065;48.884;12.598;2022-11-14T07:54:18;11.85;;;4.65;;
64653;SDS011;51065;48.884;12.598;2022-11-14T07:56:44;15.15;;;4.90;;
64653;SDS011;51065;48.884;12.598;2022-11-14T07:59:09;14.23;;;6.05;;
64653;SDS011;51065;48.884;12.598;2022-11-14T08:01:35;13.40;;;4.93;;
64653;SDS011;51065;48.884;12.598;2022-11-14T08:04:00;12.23;;;4.75;;
64653;SDS011;51065;48.884;12.598;2022-11-14T08:06:26;14.07;;;5.32;;
64653;SDS011;51065;48.884;12.598;2022-11-14T08:08:52;12.02;;;4.55;;
64653;SDS011;51065;48.884;12.598;2022-11-14T08:11:18;12.20;;;4.88;;
64653;SDS011;51065;48.884;12.598;2022-11-14T08:14:03;11.27;;;4.82;;
64653;SDS011;51065;48.884;12.598;2022-11-14T08:16:29;15.02;;;5.18;;
64653;SDS011;51065;48.884;12.598;2022-11-14T08:18:54;13.88;;;5.63;;
64653;SDS011;51065;48.884;12.598;2022-11-14T08:21:20;13.70;;;5.32;;
64653;SDS011;51065;48.884;12.598;2022-11-14T08:23:45;13.18;;;5.43;;
64653;SDS011;51065;48.884;12.598;2022-11-14T08:26:11;11.98;;;4.97;;
64653;SDS011;51065;48.884;12.598;2022-11-14T08:28:37;16.75;;;6.05;;
64653;SDS011;51065;48.884;12.598;2022-11-14T08:31:03;13.05;;;5.53;;
64653;SDS011;51065;48.884;12.598;2022-11-14T08:33:29;14.52;;;5.53;;
64653;SDS011;51065;48.884;12.598;2022-11-14T08:35:59;14.32;;;5.47;;
64653;SDS011;51065;48.884;12.598;2022-11-14T08:38:29;14.52;;;5.82;;
64653;SDS011;51065;48.884;12.598;2022-11-14T08:41:01;12.02;;;4.95;;
64653;SDS011;51065;48.884;12.598;2022-11-14T08:43:28;13.95;;;5.30;;
64653;SDS011;51065;48.884;12.598;2022-11-14T08:45:57;13.57;;;5.45;;
64653;SDS011;51065;48.884;12.598;2022-11-14T08:48:24;12.40;;;5.28;;
64653;SDS011;51065;48.884;12.598;2022-11-14T08:50:50;11.93;;;4.95;;
64653;SDS011;51065;48.884;12.598;2022-11-14T08:53:16;12.18;;;4.70;;
64653;SDS011;51065;48.884;12.598;2022-11-14T08:55:45;11.52;;;4.57;;
64653;SDS011;51065;48.884;12.598;2022-11-14T08:58:11;13.25;;;5.35;;
64653;SDS011;51065;48.884;12.598;2022-11-14T09:00:37;15.60;;;5.20;;
64653;SDS011;51065;48.884;12.598;2022-11-14T09:03:09;11.57;;;4.95;;
64653;SDS011;51065;48.884;12.598;2022-11-14T09:05:39;11.55;;;4.65;;
64653;SDS011;51065;48.884;12.598;2022-11-14T09:08:06;10.65;;;4.45;;
64653;SDS011;51065;48.884;12.598;2022-11-14T09:10:32;12.63;;;5.10;;
64653;SDS011;51065;48.884;12.598;2022-11-14T09:12:59;11.50;;;4.93;;
64653;SDS011;51065;48.884;12.598;2022-11-14T09:15:26;11.20;;;4.43;;
64653;SDS011;51065;48.884;12.598;2022-11-14T09:17:56;14.60;;;4.78;;
64653;SDS011;51065;48.884;12.598;2022-11-14T09:20:22;13.15;;;4.47;;
64653;SDS011;51065;48.884;12.598;2022-11-14T09:22:49;10.75;;;4.13;;
64653;SDS011;51065;48.884;12.598;2022-11-14T09:25:18;9.68;;;4.20;;
64653;SDS011;51065;48.884;12.598;2022-11-14T09:27:44;8.98;;;3.90;;
64653;SDS011;51065;48.884;12.598;2022-11-14T09:30:10;10.23;;;4.03;;
64653;SDS011;51065;48.884;12.598;2022-11-14T09:32:38;9.63;;;4.10;;
64653;SDS011;51065;48.884;12.598;2022-11-14T09:35:04;10.38;;;3.92;;
64653;SDS011;51065;48.884;12.598;2022-11-14T09:37:30;8.38;;;3.95;;
64653;SDS011;51065;48.884;12.598;2022-11-14T09:39:55;7.70;;;3.75;;
64653;SDS011;51065;48.884;12.598;2022-11-14T09:42:30;9.63;;;4.07;;
64653;SDS011;51065;48.884;12.598;2022-11-14T09:45:10;7.93;;;3.30;;
64653;SDS011;51065;48.884;12.598;2022-11-14T09:52:42;8.32;;;3.40;;
64653;SDS011;51065;48.884;12.598;2022-11-14T09:57:43;10.48;;;4.40;;
64653;SDS011;51065;48.884;12.598;2022-11-14T10:03:02;10.25;;;4.20;;
64653;SDS011;51065;48.884;12.598;2022-11-14T10:08:35;9.18;;;3.97;;
64653;SDS011;51065;48.884;12.598;2022-11-14T10:11:37;9.93;;;3.72;;
64653;SDS011;51065;48.884;12.598;2022-11-14T10:20:16;7.63;;;3.70;;
64653;SDS011;51065;48.884;12.598;2022-11-14T10:23:12;9.73;;;4.10;;
64653;SDS011;51065;48.884;12.598;2022-11-14T10:26:32;9.02;;;3.70;;
64653;SDS011;51065;48.884;12.598;2022-11-14T10:34:44;10.27;;;4.15;;
64653;SDS011;51065;48.884;12.598;2022-11-14T10:37:44;9.50;;;4.00;;
64653;SDS011;51065;48.884;12.598;2022-11-14T10:40:23;10.07;;;3.80;;
64653;SDS011;51065;48.884;12.598;2022-11-14T10:42:55;12.00;;;4.30;;
64653;SDS011;51065;48.884;12.598;2022-11-14T10:45:28;12.00;;;3.70;;
64653;SDS011;51065;48.884;12.598;2022-11-14T10:48:13;13.18;;;4.10;;
64653;SDS011;51065;48.884;12.598;2022-11-14T10:53:28;6.93;;;3.00;;
64653;SDS011;51065;48.884;12.598;2022-11-14T10:56:09;9.25;;;3.60;;
64653;SDS011;51065;48.884;12.598;2022-11-14T10:58:35;8.57;;;3.15;;
64653;SDS011;51065;48.884;12.598;2022-11-14T11:09:32;8.07;;;3.45;;
64653;SDS011;51065;48.884;12.598;2022-11-14T11:12:24;8.98;;;4.00;;
64653;SDS011;51065;48.884;12.598;2022-11-14T11:15:19;8.43;;;3.47;;
64653;SDS011;51065;48.884;12.598;2022-11-14T11:20:26;8.57;;;3.35;;
64653;SDS011;51065;48.884;12.598;2022-11-14T11:23:02;7.00;;;3.60;;
64653;SDS011;51065;48.884;12.598;2022-11-14T11:25:30;8.88;;;3.58;;
64653;SDS011;51065;48.884;12.598;2022-11-14T11:30:31;9.65;;;3.85;;
64653;SDS011;51065;48.884;12.598;2022-11-14T11:33:11;8.25;;;3.63;;
64653;SDS011;51065;48.884;12.598;2022-11-14T11:35:44;9.88;;;3.67;;
64653;SDS011;51065;48.884;12.598;2022-11-14T11:38:13;9.77;;;3.53;;
64653;SDS011;51065;48.884;12.598;2022-11-14T11:40:42;10.10;;;3.35;;
64653;SDS011;51065;48.884;12.598;2022-11-14T11:45:59;11.65;;;3.85;;
64653;SDS011;51065;48.884;12.598;2022-11-14T11:48:36;8.85;;;3.47;;
64653;SDS011;51065;48.884;12.598;2022-11-14T11:51:03;12.07;;;3.25;;
64653;SDS011;51065;48.884;12.598;2022-11-14T11:53:35;8.65;;;3.55;;
64653;SDS011;51065;48.884;12.598;2022-11-14T11:56:06;7.68;;;3.17;;
64653;SDS011;51065;48.884;12.598;2022-11-14T11:58:44;7.63;;;3.22;;
64653;SDS011;51065;48.884;12.598;2022-11-14T12:01:12;9.20;;;3.80;;
64653;SDS011;51065;48.884;12.598;2022-11-14T12:03:41;6.80;;;3.20;;
64653;SDS011;51065;48.884;12.598;2022-11-14T12:06:15;15.88;;;4.38;;
64653;SDS011;51065;48.884;12.598;2022-11-14T12:08:52;14.25;;;4.38;;
64653;SDS011;51065;48.884;12.598;2022-11-14T12:11:33;25.48;;;8.65;;
64653;SDS011;51065;48.884;12.598;2022-11-14T12:17:22;22.38;;;6.88;;
64653;SDS011;51065;48.884;12.598;2022-11-14T12:25:40;9.75;;;3.38;;
64653;SDS011;51065;48.884;12.598;2022-11-14T12:31:30;10.77;;;3.28;;
64653;SDS011;51065;48.884;12.598;2022-11-14T12:36:45;13.52;;;5.32;;
64653;SDS011;51065;48.884;12.598;2022-11-14T12:39:28;8.30;;;3.25;;
64653;SDS011;51065;48.884;12.598;2022-11-14T12:42:01;9.20;;;3.53;;
64653;SDS011;51065;48.884;12.598;2022-11-14T12:58:07;6.07;;;2.78;;
64653;SDS011;51065;48.884;12.598;2022-11-14T13:03:14;7.90;;;3.15;;
64653;SDS011;51065;48.884;12.598;2022-11-14T13:06:04;13.68;;;3.45;;
64653;SDS011;51065;48.884;12.598;2022-11-14T13:14:23;8.70;;;2.90;;
64653;SDS011;51065;48.884;12.598;2022-11-14T13:17:29;9.40;;;3.22;;
64653;SDS011;51065;48.884;12.598;2022-11-14T13:20:29;11.18;;;3.65;;
64653;SDS011;51065;48.884;12.598;2022-11-14T13:26:52;12.43;;;2.83;;
64653;SDS011;51065;48.884;12.598;2022-11-14T13:28:47;7.32;;;3.08;;
64653;SDS011;51065;48.884;12.598;2022-11-14T13:33:43;9.20;;;3.60;;
64653;SDS011;51065;48.884;12.598;2022-11-14T13:44:35;10.65;;;3.67;;
64653;SDS011;51065;48.884;12.598;2022-11-14T13:52:31;8.05;;;3.50;;
64653;SDS011;51065;48.884;12.598;2022-11-14T13:54:58;7.40;;;3.20;;
64653;SDS011;51065;48.884;12.598;2022-11-14T13:57:43;9.77;;;3.65;;
64653;SDS011;51065;48.884;12.598;2022-11-14T14:08:56;12.70;;;3.80;;
64653;SDS011;51065;48.884;12.598;2022-11-14T14:11:38;13.40;;;4.25;;
64653;SDS011;51065;48.884;12.598;2022-11-14T14:16:51;8.38;;;3.58;;
64653;SDS011;51065;48.884;12.598;2022-11-14T14:32:37;10.07;;;4.13;;
64653;SDS011;51065;48.884;12.598;2022-11-14T14:35:23;10.52;;;3.67;;
64653;SDS011;51065;48.884;12.598;2022-11-14T14:37:52;9.85;;;3.95;;
64653;SDS011;51065;48.884;12.598;2022-11-14T14:42:49;11.50;;;4.45;;
64653;SDS011;51065;48.884;12.598;2022-11-14T14:45:17;10.80;;;4.28;;
64653;SDS011;51065;48.884;12.598;2022-11-14T14:48:05;13.07;;;4.82;;
64653;SDS011;51065;48.884;12.598;2022-11-14T14:50:46;12.77;;;4.80;;
64653;SDS011;51065;48.884;12.598;2022-11-14T14:53:24;10.90;;;4.38;;
64653;SDS011;51065;48.884;12.598;2022-11-14T14:55:53;15.55;;;4.03;;
64653;SDS011;51065;48.884;12.598;2022-11-14T15:03:25;10.15;;;4.25;;
64653;SDS011;51065;48.884;12.598;2022-11-14T15:05:59;11.95;;;4.28;;
64653;SDS011;51065;48.884;12.598;2022-11-14T15:08:28;12.48;;;4.55;;
64653;SDS011;51065;48.884;12.598;2022-11-14T15:10:59;14.05;;;4.82;;
64653;SDS011;51065;48.884;12.598;2022-11-14T15:13:29;11.40;;;3.93;;
64653;SDS011;51065;48.884;12.598;2022-11-14T15:15:55;14.05;;;4.72;;
64653;SDS011;51065;48.884;12.598;2022-11-14T15:18:23;12.27;;;4.70;;
64653;SDS011;51065;48.884;12.598;2022-11-14T15:21:09;12.88;;;4.63;;
64653;SDS011;51065;48.884;12.598;2022-11-14T15:23:38;16.67;;;5.45;;
64653;SDS011;51065;48.884;12.598;2022-11-14T15:26:14;12.20;;;4.50;;
64653;SDS011;51065;48.884;12.598;2022-11-14T15:28:41;12.18;;;4.28;;
64653;SDS011;51065;48.884;12.598;2022-11-14T15:31:14;14.38;;;4.90;;
64653;SDS011;51065;48.884;12.598;2022-11-14T15:33:43;12.60;;;4.72;;
64653;SDS011;51065;48.884;12.598;2022-11-14T15:38:36;14.75;;;4.78;;
64653;SDS011;51065;48.884;12.598;2022-11-14T15:41:21;13.68;;;5.70;;
64653;SDS011;51065;48.884;12.598;2022-11-14T15:43:52;17.27;;;5.82;;
64653;SDS011;51065;48.884;12.598;2022-11-14T15:48:51;21.42;;;6.20;;
64653;SDS011;51065;48.884;12.598;2022-11-14T15:51:16;15.98;;;6.32;;
64653;SDS011;51065;48.884;12.598;2022-11-14T15:53:48;15.75;;;6.35;;
64653;SDS011;51065;48.884;12.598;2022-11-14T15:56:14;22.63;;;8.00;;
64653;SDS011;51065;48.884;12.598;2022-11-14T15:58:39;18.10;;;6.57;;
64653;SDS011;51065;48.884;12.598;2022-11-14T16:01:07;29.40;;;9.70;;
64653;SDS011;51065;48.884;12.598;2022-11-14T16:03:44;23.50;;;10.15;;
64653;SDS011;51065;48.884;12.598;2022-11-14T16:06:15;21.65;;;10.30;;
64653;SDS011;51065;48.884;12.598;2022-11-14T16:08:41;22.88;;;9.10;;
64653;SDS011;51065;48.884;12.598;2022-11-14T16:11:06;23.58;;;10.05;;
64653;SDS011;51065;48.884;12.598;2022-11-14T16:13:32;21.83;;;9.93;;
64653;SDS011;51065;48.884;12.598;2022-11-14T16:15:58;24.15;;;11.07;;
64653;SDS011;51065;48.884;12.598;2022-11-14T16:18:23;33.33;;;17.60;;
64653;SDS011;51065;48.884;12.598;2022-11-14T16:20:49;29.58;;;14.63;;
64653;SDS011;51065;48.884;12.598;2022-11-14T16:23:15;25.05;;;12.18;;
64653;SDS011;51065;48.884;12.598;2022-11-14T16:25:41;29.42;;;16.00;;
64653;SDS011;51065;48.884;12.598;2022-11-14T16:28:06;26.90;;;13.75;;
64653;SDS011;51065;48.884;12.598;2022-11-14T16:30:32;27.90;;;14.77;;
64653;SDS011;51065;48.884;12.598;2022-11-14T16:32:58;35.55;;;18.98;;
64653;SDS011;51065;48.884;12.598;2022-11-14T16:35:25;45.42;;;24.73;;
64653;SDS011;51065;48.884;12.598;2022-11-14T16:37:53;37.40;;;22.45;;
64653;SDS011;51065;48.884;12.598;2022-11-14T16:40:20;27.70;;;14.95;;
64653;SDS011;51065;48.884;12.598;2022-11-14T16:42:53;29.42;;;17.08;;
64653;SDS011;51065;48.884;12.598;2022-11-14T16:45:20;33.03;;;17.67;;
64653;SDS011;51065;48.884;12.598;2022-11-14T16:47:46;31.45;;;15.55;;
64653;SDS011;51065;48.884;12.598;2022-11-14T16:50:12;29.13;;;16.40;;
64653;SDS011;51065;48.884;12.598;2022-11-14T16:52:38;31.95;;;17.23;;
64653;SDS011;51065;48.884;12.598;2022-11-14T16:55:04;40.25;;;17.77;;
64653;SDS011;51065;48.884;12.598;2022-11-14T16:57:31;34.90;;;18.48;;